sensor_id;sensor_type;location;lat;lon;timestamp;P1;durP1;ratioP1;P2;durP2;ratioP2
5805;SDS011;2929;50.810;8.342;2022-07-06T00:01:07;2.60;;;2.40;;
5805;SDS011;2929;50.810;8.342;2022-07-06T00:03:34;3.00;;;2.60;;
5805;SDS011;2929;50.810;8.342;2022-07-06T00:06:02;2.93;;;2.60;;
5805;SDS011;2929;50.810;8.342;2022-07-06T00:08:30;7.97;;;2.70;;
5805;SDS011;2929;50.810;8.342;2022-07-06T00:10:57;5.20;;;2.70;;
5805;SDS011;2929;50.810;8.342;2022-07-06T00:13:24;2.70;;;2.30;;
5805;SDS011;2929;50.810;8.342;2022-07-06T00:15:51;2.40;;;2.20;;
5805;SDS011;2929;50.810;8.342;2022-07-06T00:18:19;6.60;;;1.80;;
5805;SDS011;2929;50.810;8.342;2022-07-06T00:20:46;2.23;;;2.03;;
5805;SDS011;2929;50.810;8.342;2022-07-06T00:23:13;5.20;;;3.20;;
5805;SDS011;2929;50.810;8.342;2022-07-06T00:25:42;2.70;;;2.50;;
5805;SDS011;2929;50.810;8.342;2022-07-06T00:28:09;5.10;;;3.00;;
5805;SDS011;2929;50.810;8.342;2022-07-06T00:30:36;4.43;;;3.33;;
5805;SDS011;2929;50.810;8.342;2022-07-06T00:33:03;4.57;;;2.63;;
5805;SDS011;2929;50.810;8.342;2022-07-06T00:35:30;5.93;;;3.10;;
5805;SDS011;2929;50.810;8.342;2022-07-06T00:37:57;3.03;;;2.73;;
5805;SDS011;2929;50.810;8.342;2022-07-06T00:40:24;4.27;;;2.60;;
5805;SDS011;2929;50.810;8.342;2022-07-06T00:42:53;3.30;;;3.00;;
5805;SDS011;2929;50.810;8.342;2022-07-06T00:45:20;4.50;;;2.77;;
5805;SDS011;2929;50.810;8.342;2022-07-06T00:47:47;5.50;;;2.70;;
5805;SDS011;2929;50.810;8.342;2022-07-06T00:50:15;3.70;;;2.37;;
5805;SDS011;2929;50.810;8.342;2022-07-06T00:52:46;5.03;;;2.77;;
5805;SDS011;2929;50.810;8.342;2022-07-06T00:55:16;4.40;;;3.00;;
5805;SDS011;2929;50.810;8.342;2022-07-06T00:57:47;4.90;;;2.40;;
5805;SDS011;2929;50.810;8.342;2022-07-06T01:00:17;2.30;;;2.20;;
5805;SDS011;2929;50.810;8.342;2022-07-06T01:02:46;3.80;;;2.60;;
5805;SDS011;2929;50.810;8.342;2022-07-06T01:05:14;3.33;;;2.80;;
5805;SDS011;2929;50.810;8.342;2022-07-06T01:07:43;4.20;;;2.67;;
5805;SDS011;2929;50.810;8.342;2022-07-06T01:10:12;3.40;;;2.70;;
5805;SDS011;2929;50.810;8.342;2022-07-06T01:12:40;5.73;;;2.73;;
5805;SDS011;2929;50.810;8.342;2022-07-06T01:15:10;4.90;;;2.83;;
5805;SDS011;2929;50.810;8.342;2022-07-06T01:17:41;3.77;;;2.90;;
5805;SDS011;2929;50.810;8.342;2022-07-06T01:20:10;4.80;;;2.37;;
5805;SDS011;2929;50.810;8.342;2022-07-06T01:22:39;5.83;;;2.40;;
5805;SDS011;2929;50.810;8.342;2022-07-06T01:25:06;5.00;;;3.07;;
5805;SDS011;2929;50.810;8.342;2022-07-06T01:27:35;5.73;;;2.80;;
5805;SDS011;2929;50.810;8.342;2022-07-06T01:30:04;5.90;;;2.80;;
5805;SDS011;2929;50.810;8.342;2022-07-06T01:32:34;7.10;;;2.37;;
5805;SDS011;2929;50.810;8.342;2022-07-06T01:35:02;2.93;;;2.70;;
5805;SDS011;2929;50.810;8.342;2022-07-06T01:37:32;4.03;;;2.37;;
5805;SDS011;2929;50.810;8.342;2022-07-06T01:40:00;7.57;;;2.60;;
5805;SDS011;2929;50.810;8.342;2022-07-06T01:42:27;4.90;;;2.37;;
5805;SDS011;2929;50.810;8.342;2022-07-06T01:44:54;5.70;;;3.00;;
5805;SDS011;2929;50.810;8.342;2022-07-06T01:47:21;3.73;;;2.80;;
5805;SDS011;2929;50.810;8.342;2022-07-06T01:49:50;2.60;;;2.40;;
5805;SDS011;2929;50.810;8.342;2022-07-06T01:52:18;3.53;;;3.23;;
5805;SDS011;2929;50.810;8.342;2022-07-06T01:54:47;4.73;;;2.83;;
5805;SDS011;2929;50.810;8.342;2022-07-06T01:57:14;4.30;;;2.87;;
5805;SDS011;2929;50.810;8.342;2022-07-06T01:59:41;5.53;;;3.50;;
5805;SDS011;2929;50.810;8.342;2022-07-06T02:02:09;5.90;;;2.97;;
5805;SDS011;2929;50.810;8.342;2022-07-06T02:04:36;8.63;;;2.60;;
5805;SDS011;2929;50.810;8.342;2022-07-06T02:07:03;4.07;;;2.57;;
5805;SDS011;2929;50.810;8.342;2022-07-06T02:09:30;5.80;;;2.90;;
5805;SDS011;2929;50.810;8.342;2022-07-06T02:12:01;4.10;;;2.90;;
5805;SDS011;2929;50.810;8.342;2022-07-06T02:14:28;4.47;;;3.40;;
5805;SDS011;2929;50.810;8.342;2022-07-06T02:16:56;4.70;;;2.87;;
5805;SDS011;2929;50.810;8.342;2022-07-06T02:19:23;3.03;;;2.70;;
5805;SDS011;2929;50.810;8.342;2022-07-06T02:21:50;4.33;;;2.40;;
5805;SDS011;2929;50.810;8.342;2022-07-06T02:24:17;5.53;;;2.60;;
5805;SDS011;2929;50.810;8.342;2022-07-06T02:26:44;3.73;;;3.00;;
5805;SDS011;2929;50.810;8.342;2022-07-06T02:29:13;2.63;;;2.40;;
5805;SDS011;2929;50.810;8.342;2022-07-06T02:31:40;4.00;;;2.50;;
5805;SDS011;2929;50.810;8.342;2022-07-06T02:34:08;4.00;;;2.67;;
5805;SDS011;2929;50.810;8.342;2022-07-06T02:36:37;10.30;;;2.70;;
5805;SDS011;2929;50.810;8.342;2022-07-06T02:39:04;4.10;;;2.70;;
5805;SDS011;2929;50.810;8.342;2022-07-06T02:41:31;2.80;;;2.50;;
5805;SDS011;2929;50.810;8.342;2022-07-06T02:43:58;3.67;;;2.70;;
5805;SDS011;2929;50.810;8.342;2022-07-06T02:46:26;5.40;;;3.20;;
5805;SDS011;2929;50.810;8.342;2022-07-06T02:48:54;5.03;;;2.90;;
5805;SDS011;2929;50.810;8.342;2022-07-06T02:51:21;4.93;;;3.20;;
5805;SDS011;2929;50.810;8.342;2022-07-06T02:53:49;9.53;;;3.87;;
5805;SDS011;2929;50.810;8.342;2022-07-06T02:56:17;4.87;;;3.27;;
5805;SDS011;2929;50.810;8.342;2022-07-06T02:58:44;7.07;;;3.73;;
5805;SDS011;2929;50.810;8.342;2022-07-06T03:01:12;10.93;;;4.10;;
5805;SDS011;2929;50.810;8.342;2022-07-06T03:03:41;5.30;;;3.30;;
5805;SDS011;2929;50.810;8.342;2022-07-06T03:06:08;4.40;;;3.10;;
5805;SDS011;2929;50.810;8.342;2022-07-06T03:08:35;3.90;;;3.20;;
5805;SDS011;2929;50.810;8.342;2022-07-06T03:11:03;6.07;;;3.27;;
5805;SDS011;2929;50.810;8.342;2022-07-06T03:13:30;7.50;;;3.37;;
5805;SDS011;2929;50.810;8.342;2022-07-06T03:15:58;5.13;;;2.83;;
5805;SDS011;2929;50.810;8.342;2022-07-06T03:18:27;3.10;;;2.80;;
5805;SDS011;2929;50.810;8.342;2022-07-06T03:20:55;4.97;;;2.83;;
5805;SDS011;2929;50.810;8.342;2022-07-06T03:23:23;3.10;;;2.47;;
5805;SDS011;2929;50.810;8.342;2022-07-06T03:25:50;4.50;;;3.20;;
5805;SDS011;2929;50.810;8.342;2022-07-06T03:28:17;4.50;;;2.80;;
5805;SDS011;2929;50.810;8.342;2022-07-06T03:30:45;3.20;;;2.90;;
5805;SDS011;2929;50.810;8.342;2022-07-06T03:33:12;4.57;;;3.10;;
5805;SDS011;2929;50.810;8.342;2022-07-06T03:35:39;6.00;;;2.57;;
5805;SDS011;2929;50.810;8.342;2022-07-06T03:38:09;3.27;;;2.53;;
5805;SDS011;2929;50.810;8.342;2022-07-06T03:40:38;5.70;;;2.80;;
5805;SDS011;2929;50.810;8.342;2022-07-06T03:43:05;4.63;;;2.57;;
5805;SDS011;2929;50.810;8.342;2022-07-06T03:45:35;5.30;;;3.17;;
5805;SDS011;2929;50.810;8.342;2022-07-06T03:48:04;6.00;;;3.03;;
5805;SDS011;2929;50.810;8.342;2022-07-06T03:50:34;3.43;;;2.40;;
5805;SDS011;2929;50.810;8.342;2022-07-06T03:53:02;8.63;;;3.10;;
5805;SDS011;2929;50.810;8.342;2022-07-06T03:55:30;3.70;;;2.83;;
5805;SDS011;2929;50.810;8.342;2022-07-06T03:58:01;8.20;;;3.17;;
5805;SDS011;2929;50.810;8.342;2022-07-06T04:00:28;3.30;;;2.40;;
5805;SDS011;2929;50.810;8.342;2022-07-06T04:03:01;5.30;;;2.80;;
5805;SDS011;2929;50.810;8.342;2022-07-06T04:05:34;2.67;;;2.40;;
5805;SDS011;2929;50.810;8.342;2022-07-06T04:08:01;4.30;;;3.00;;
5805;SDS011;2929;50.810;8.342;2022-07-06T04:10:39;4.90;;;2.70;;
5805;SDS011;2929;50.810;8.342;2022-07-06T04:13:06;3.70;;;2.70;;
5805;SDS011;2929;50.810;8.342;2022-07-06T04:15:33;2.73;;;2.50;;
5805;SDS011;2929;50.810;8.342;2022-07-06T04:18:01;4.07;;;3.07;;
5805;SDS011;2929;50.810;8.342;2022-07-06T04:20:36;5.57;;;3.47;;
5805;SDS011;2929;50.810;8.342;2022-07-06T04:23:03;6.77;;;3.00;;
5805;SDS011;2929;50.810;8.342;2022-07-06T04:25:31;8.73;;;2.97;;
5805;SDS011;2929;50.810;8.342;2022-07-06T04:28:02;6.63;;;2.73;;
5805;SDS011;2929;50.810;8.342;2022-07-06T04:30:30;3.23;;;2.60;;
5805;SDS011;2929;50.810;8.342;2022-07-06T04:32:59;5.23;;;3.27;;
5805;SDS011;2929;50.810;8.342;2022-07-06T04:35:28;6.57;;;2.83;;
5805;SDS011;2929;50.810;8.342;2022-07-06T04:37:56;8.33;;;2.90;;
5805;SDS011;2929;50.810;8.342;2022-07-06T04:40:23;6.30;;;3.50;;
5805;SDS011;2929;50.810;8.342;2022-07-06T04:42:54;4.80;;;3.03;;
5805;SDS011;2929;50.810;8.342;2022-07-06T04:45:24;5.70;;;2.90;;
5805;SDS011;2929;50.810;8.342;2022-07-06T04:47:52;4.50;;;2.73;;
5805;SDS011;2929;50.810;8.342;2022-07-06T04:50:19;5.30;;;2.80;;
5805;SDS011;2929;50.810;8.342;2022-07-06T04:52:47;4.27;;;2.90;;
5805;SDS011;2929;50.810;8.342;2022-07-06T04:55:15;9.30;;;2.93;;
5805;SDS011;2929;50.810;8.342;2022-07-06T04:57:42;7.80;;;3.43;;
5805;SDS011;2929;50.810;8.342;2022-07-06T05:00:12;4.63;;;2.83;;
5805;SDS011;2929;50.810;8.342;2022-07-06T05:02:43;7.23;;;2.77;;
5805;SDS011;2929;50.810;8.342;2022-07-06T05:05:10;5.23;;;2.77;;
5805;SDS011;2929;50.810;8.342;2022-07-06T05:07:37;10.17;;;2.63;;
5805;SDS011;2929;50.810;8.342;2022-07-06T05:10:07;9.20;;;3.30;;
5805;SDS011;2929;50.810;8.342;2022-07-06T05:12:36;31.37;;;5.23;;
5805;SDS011;2929;50.810;8.342;2022-07-06T05:15:04;13.93;;;3.67;;
5805;SDS011;2929;50.810;8.342;2022-07-06T05:17:33;13.13;;;3.20;;
5805;SDS011;2929;50.810;8.342;2022-07-06T05:20:02;15.10;;;3.10;;
5805;SDS011;2929;50.810;8.342;2022-07-06T05:22:32;8.50;;;3.43;;
5805;SDS011;2929;50.810;8.342;2022-07-06T05:25:00;5.30;;;3.10;;
5805;SDS011;2929;50.810;8.342;2022-07-06T05:27:27;5.80;;;3.03;;
5805;SDS011;2929;50.810;8.342;2022-07-06T05:29:54;7.40;;;3.30;;
5805;SDS011;2929;50.810;8.342;2022-07-06T05:32:22;7.23;;;3.40;;
5805;SDS011;2929;50.810;8.342;2022-07-06T05:34:49;11.33;;;3.07;;
5805;SDS011;2929;50.810;8.342;2022-07-06T05:37:20;9.23;;;3.53;;
5805;SDS011;2929;50.810;8.342;2022-07-06T05:39:47;8.77;;;2.90;;
5805;SDS011;2929;50.810;8.342;2022-07-06T05:42:15;7.40;;;3.57;;
5805;SDS011;2929;50.810;8.342;2022-07-06T05:44:44;6.30;;;3.60;;
5805;SDS011;2929;50.810;8.342;2022-07-06T05:47:12;7.40;;;3.47;;
5805;SDS011;2929;50.810;8.342;2022-07-06T05:49:57;9.90;;;3.63;;
5805;SDS011;2929;50.810;8.342;2022-07-06T05:52:56;10.93;;;3.23;;
5805;SDS011;2929;50.810;8.342;2022-07-06T05:55:25;4.50;;;3.23;;
5805;SDS011;2929;50.810;8.342;2022-07-06T05:57:53;7.37;;;2.77;;
5805;SDS011;2929;50.810;8.342;2022-07-06T06:00:23;7.33;;;3.00;;
5805;SDS011;2929;50.810;8.342;2022-07-06T06:02:53;6.43;;;2.60;;
5805;SDS011;2929;50.810;8.342;2022-07-06T06:05:21;5.33;;;2.73;;
5805;SDS011;2929;50.810;8.342;2022-07-06T06:07:51;10.40;;;2.80;;
5805;SDS011;2929;50.810;8.342;2022-07-06T06:10:23;6.50;;;2.77;;
5805;SDS011;2929;50.810;8.342;2022-07-06T06:12:54;3.93;;;2.37;;
5805;SDS011;2929;50.810;8.342;2022-07-06T06:15:22;3.20;;;2.83;;
5805;SDS011;2929;50.810;8.342;2022-07-06T06:17:49;6.47;;;2.87;;
5805;SDS011;2929;50.810;8.342;2022-07-06T06:20:16;2.40;;;2.20;;
5805;SDS011;2929;50.810;8.342;2022-07-06T06:22:44;6.37;;;2.90;;
5805;SDS011;2929;50.810;8.342;2022-07-06T06:25:12;4.67;;;2.90;;
5805;SDS011;2929;50.810;8.342;2022-07-06T06:27:41;6.80;;;2.43;;
5805;SDS011;2929;50.810;8.342;2022-07-06T06:30:08;5.73;;;2.60;;
5805;SDS011;2929;50.810;8.342;2022-07-06T06:32:36;4.60;;;2.30;;
5805;SDS011;2929;50.810;8.342;2022-07-06T06:35:03;3.93;;;2.40;;
5805;SDS011;2929;50.810;8.342;2022-07-06T06:37:31;2.67;;;2.17;;
5805;SDS011;2929;50.810;8.342;2022-07-06T06:39:59;4.83;;;2.33;;
5805;SDS011;2929;50.810;8.342;2022-07-06T06:42:26;3.93;;;2.37;;
5805;SDS011;2929;50.810;8.342;2022-07-06T06:44:54;1.63;;;1.53;;
5805;SDS011;2929;50.810;8.342;2022-07-06T06:47:21;2.17;;;1.93;;
5805;SDS011;2929;50.810;8.342;2022-07-06T06:49:48;3.33;;;2.30;;
5805;SDS011;2929;50.810;8.342;2022-07-06T06:52:15;4.87;;;2.37;;
5805;SDS011;2929;50.810;8.342;2022-07-06T06:54:42;4.00;;;2.27;;
5805;SDS011;2929;50.810;8.342;2022-07-06T06:57:09;3.90;;;2.73;;
5805;SDS011;2929;50.810;8.342;2022-07-06T06:59:36;5.90;;;3.23;;
5805;SDS011;2929;50.810;8.342;2022-07-06T07:02:05;4.30;;;2.03;;
5805;SDS011;2929;50.810;8.342;2022-07-06T07:04:32;4.90;;;2.60;;
5805;SDS011;2929;50.810;8.342;2022-07-06T07:07:00;5.90;;;2.20;;
5805;SDS011;2929;50.810;8.342;2022-07-06T07:09:27;5.77;;;1.80;;
5805;SDS011;2929;50.810;8.342;2022-07-06T07:11:54;3.47;;;1.80;;
5805;SDS011;2929;50.810;8.342;2022-07-06T07:14:21;3.77;;;1.63;;
5805;SDS011;2929;50.810;8.342;2022-07-06T07:16:48;2.90;;;2.07;;
5805;SDS011;2929;50.810;8.342;2022-07-06T07:19:16;5.73;;;1.77;;
5805;SDS011;2929;50.810;8.342;2022-07-06T07:21:43;5.40;;;1.87;;
5805;SDS011;2929;50.810;8.342;2022-07-06T07:24:10;4.50;;;1.77;;
5805;SDS011;2929;50.810;8.342;2022-07-06T07:26:38;4.60;;;2.33;;
5805;SDS011;2929;50.810;8.342;2022-07-06T07:29:05;3.00;;;1.77;;
5805;SDS011;2929;50.810;8.342;2022-07-06T07:31:32;4.90;;;1.60;;
5805;SDS011;2929;50.810;8.342;2022-07-06T07:33:59;4.87;;;1.70;;
5805;SDS011;2929;50.810;8.342;2022-07-06T07:36:27;3.20;;;1.83;;
5805;SDS011;2929;50.810;8.342;2022-07-06T07:38:54;2.87;;;1.50;;
5805;SDS011;2929;50.810;8.342;2022-07-06T07:41:21;3.33;;;2.00;;
5805;SDS011;2929;50.810;8.342;2022-07-06T07:43:48;2.80;;;1.40;;
5805;SDS011;2929;50.810;8.342;2022-07-06T07:46:15;1.57;;;1.30;;
5805;SDS011;2929;50.810;8.342;2022-07-06T07:48:42;2.60;;;1.43;;
5805;SDS011;2929;50.810;8.342;2022-07-06T07:51:10;2.60;;;1.50;;
5805;SDS011;2929;50.810;8.342;2022-07-06T07:53:39;2.83;;;1.73;;
5805;SDS011;2929;50.810;8.342;2022-07-06T07:56:09;4.10;;;1.50;;
5805;SDS011;2929;50.810;8.342;2022-07-06T07:58:36;4.97;;;1.70;;
5805;SDS011;2929;50.810;8.342;2022-07-06T08:01:04;5.50;;;1.70;;
5805;SDS011;2929;50.810;8.342;2022-07-06T08:03:31;3.23;;;1.53;;
5805;SDS011;2929;50.810;8.342;2022-07-06T08:05:58;2.83;;;1.37;;
5805;SDS011;2929;50.810;8.342;2022-07-06T08:08:25;4.17;;;1.50;;
5805;SDS011;2929;50.810;8.342;2022-07-06T08:10:53;2.40;;;1.70;;
5805;SDS011;2929;50.810;8.342;2022-07-06T08:13:20;4.30;;;1.70;;
5805;SDS011;2929;50.810;8.342;2022-07-06T08:15:47;1.57;;;1.30;;
5805;SDS011;2929;50.810;8.342;2022-07-06T08:18:14;7.53;;;1.50;;
5805;SDS011;2929;50.810;8.342;2022-07-06T08:20:41;4.80;;;2.63;;
5805;SDS011;2929;50.810;8.342;2022-07-06T08:23:08;1.93;;;1.37;;
5805;SDS011;2929;50.810;8.342;2022-07-06T08:25:36;2.80;;;1.53;;
5805;SDS011;2929;50.810;8.342;2022-07-06T08:28:04;3.20;;;1.07;;
5805;SDS011;2929;50.810;8.342;2022-07-06T08:30:31;1.00;;;0.87;;
5805;SDS011;2929;50.810;8.342;2022-07-06T08:33:00;2.80;;;1.30;;
5805;SDS011;2929;50.810;8.342;2022-07-06T08:35:27;2.10;;;1.50;;
5805;SDS011;2929;50.810;8.342;2022-07-06T08:37:55;1.40;;;1.30;;
5805;SDS011;2929;50.810;8.342;2022-07-06T08:40:22;2.67;;;0.97;;
5805;SDS011;2929;50.810;8.342;2022-07-06T08:42:49;3.97;;;1.67;;
5805;SDS011;2929;50.810;8.342;2022-07-06T08:45:21;1.33;;;0.80;;
5805;SDS011;2929;50.810;8.342;2022-07-06T08:47:49;3.60;;;1.20;;
5805;SDS011;2929;50.810;8.342;2022-07-06T08:50:16;1.37;;;0.90;;
5805;SDS011;2929;50.810;8.342;2022-07-06T08:52:45;4.20;;;1.00;;
5805;SDS011;2929;50.810;8.342;2022-07-06T08:55:14;3.63;;;1.27;;
5805;SDS011;2929;50.810;8.342;2022-07-06T08:57:41;2.90;;;1.40;;
5805;SDS011;2929;50.810;8.342;2022-07-06T09:00:10;2.97;;;1.93;;
5805;SDS011;2929;50.810;8.342;2022-07-06T09:02:40;2.30;;;1.30;;
5805;SDS011;2929;50.810;8.342;2022-07-06T09:05:07;4.23;;;1.20;;
5805;SDS011;2929;50.810;8.342;2022-07-06T09:07:35;1.70;;;1.60;;
5805;SDS011;2929;50.810;8.342;2022-07-06T09:10:02;2.97;;;0.80;;
5805;SDS011;2929;50.810;8.342;2022-07-06T09:12:31;1.50;;;0.80;;
5805;SDS011;2929;50.810;8.342;2022-07-06T09:14:58;5.60;;;1.00;;
5805;SDS011;2929;50.810;8.342;2022-07-06T09:17:26;1.10;;;0.90;;
5805;SDS011;2929;50.810;8.342;2022-07-06T09:19:55;3.30;;;1.10;;
5805;SDS011;2929;50.810;8.342;2022-07-06T09:22:26;2.60;;;1.10;;
5805;SDS011;2929;50.810;8.342;2022-07-06T09:25:00;2.90;;;1.00;;
5805;SDS011;2929;50.810;8.342;2022-07-06T09:27:29;2.67;;;1.00;;
5805;SDS011;2929;50.810;8.342;2022-07-06T09:29:58;5.40;;;1.10;;
5805;SDS011;2929;50.810;8.342;2022-07-06T09:32:26;3.33;;;0.90;;
5805;SDS011;2929;50.810;8.342;2022-07-06T09:34:53;2.00;;;1.00;;
5805;SDS011;2929;50.810;8.342;2022-07-06T09:37:22;2.20;;;1.30;;
5805;SDS011;2929;50.810;8.342;2022-07-06T09:39:49;1.63;;;1.13;;
5805;SDS011;2929;50.810;8.342;2022-07-06T09:42:16;2.30;;;1.40;;
5805;SDS011;2929;50.810;8.342;2022-07-06T09:44:50;1.03;;;0.97;;
5805;SDS011;2929;50.810;8.342;2022-07-06T09:47:17;1.30;;;1.10;;
5805;SDS011;2929;50.810;8.342;2022-07-06T09:49:45;6.70;;;1.30;;
5805;SDS011;2929;50.810;8.342;2022-07-06T09:52:15;1.70;;;0.87;;
5805;SDS011;2929;50.810;8.342;2022-07-06T09:54:42;1.07;;;0.80;;
5805;SDS011;2929;50.810;8.342;2022-07-06T09:57:09;5.53;;;1.27;;
5805;SDS011;2929;50.810;8.342;2022-07-06T09:59:36;1.17;;;1.00;;
5805;SDS011;2929;50.810;8.342;2022-07-06T10:02:05;2.60;;;1.20;;
5805;SDS011;2929;50.810;8.342;2022-07-06T10:04:33;2.70;;;1.20;;
5805;SDS011;2929;50.810;8.342;2022-07-06T10:07:01;4.73;;;1.03;;
5805;SDS011;2929;50.810;8.342;2022-07-06T10:09:29;1.37;;;1.10;;
5805;SDS011;2929;50.810;8.342;2022-07-06T10:12:00;3.40;;;1.17;;
5805;SDS011;2929;50.810;8.342;2022-07-06T10:14:28;2.50;;;0.90;;
5805;SDS011;2929;50.810;8.342;2022-07-06T10:16:56;3.70;;;1.20;;
5805;SDS011;2929;50.810;8.342;2022-07-06T10:19:25;2.10;;;0.90;;
5805;SDS011;2929;50.810;8.342;2022-07-06T10:21:53;2.30;;;1.00;;
5805;SDS011;2929;50.810;8.342;2022-07-06T10:24:22;2.63;;;1.03;;
5805;SDS011;2929;50.810;8.342;2022-07-06T10:26:51;2.13;;;1.00;;
5805;SDS011;2929;50.810;8.342;2022-07-06T10:29:19;0.80;;;0.80;;
5805;SDS011;2929;50.810;8.342;2022-07-06T10:31:47;3.10;;;1.33;;
5805;SDS011;2929;50.810;8.342;2022-07-06T10:34:17;2.70;;;1.10;;
5805;SDS011;2929;50.810;8.342;2022-07-06T10:36:48;1.03;;;0.90;;
5805;SDS011;2929;50.810;8.342;2022-07-06T10:39:17;1.77;;;1.00;;
5805;SDS011;2929;50.810;8.342;2022-07-06T10:45:15;3.23;;;1.17;;
5805;SDS011;2929;50.810;8.342;2022-07-06T10:47:47;1.70;;;0.90;;
5805;SDS011;2929;50.810;8.342;2022-07-06T10:50:16;1.07;;;0.70;;
5805;SDS011;2929;50.810;8.342;2022-07-06T10:52:48;1.47;;;1.20;;
5805;SDS011;2929;50.810;8.342;2022-07-06T10:55:30;2.90;;;1.20;;
5805;SDS011;2929;50.810;8.342;2022-07-06T10:58:00;1.10;;;1.00;;
5805;SDS011;2929;50.810;8.342;2022-07-06T11:00:42;4.37;;;1.10;;
5805;SDS011;2929;50.810;8.342;2022-07-06T11:06:06;1.83;;;1.00;;
5805;SDS011;2929;50.810;8.342;2022-07-06T11:08:45;1.20;;;1.00;;
5805;SDS011;2929;50.810;8.342;2022-07-06T11:11:18;3.00;;;1.00;;
5805;SDS011;2929;50.810;8.342;2022-07-06T11:13:55;5.90;;;1.00;;
5805;SDS011;2929;50.810;8.342;2022-07-06T11:16:25;3.27;;;1.53;;
5805;SDS011;2929;50.810;8.342;2022-07-06T11:19:00;1.73;;;0.80;;
5805;SDS011;2929;50.810;8.342;2022-07-06T11:21:34;5.10;;;1.70;;
5805;SDS011;2929;50.810;8.342;2022-07-06T11:24:06;2.00;;;1.20;;
5805;SDS011;2929;50.810;8.342;2022-07-06T11:26:35;2.60;;;1.00;;
5805;SDS011;2929;50.810;8.342;2022-07-06T11:29:04;4.40;;;1.17;;
5805;SDS011;2929;50.810;8.342;2022-07-06T11:31:33;1.13;;;0.87;;
5805;SDS011;2929;50.810;8.342;2022-07-06T11:34:02;1.13;;;1.03;;
5805;SDS011;2929;50.810;8.342;2022-07-06T11:36:29;1.97;;;1.10;;
5805;SDS011;2929;50.810;8.342;2022-07-06T11:38:57;2.50;;;0.70;;
5805;SDS011;2929;50.810;8.342;2022-07-06T11:41:24;3.50;;;1.20;;
5805;SDS011;2929;50.810;8.342;2022-07-06T11:43:51;2.20;;;1.10;;
5805;SDS011;2929;50.810;8.342;2022-07-06T11:46:21;5.50;;;1.10;;
5805;SDS011;2929;50.810;8.342;2022-07-06T11:48:49;1.57;;;0.97;;
5805;SDS011;2929;50.810;8.342;2022-07-06T11:51:17;3.27;;;0.87;;
5805;SDS011;2929;50.810;8.342;2022-07-06T11:53:45;1.90;;;1.00;;
5805;SDS011;2929;50.810;8.342;2022-07-06T11:56:14;2.13;;;1.00;;
5805;SDS011;2929;50.810;8.342;2022-07-06T11:58:44;2.53;;;0.83;;
5805;SDS011;2929;50.810;8.342;2022-07-06T12:01:13;1.10;;;1.00;;
5805;SDS011;2929;50.810;8.342;2022-07-06T12:03:42;3.17;;;1.07;;
5805;SDS011;2929;50.810;8.342;2022-07-06T12:06:13;2.40;;;1.00;;
5805;SDS011;2929;50.810;8.342;2022-07-06T12:08:43;1.50;;;1.00;;
5805;SDS011;2929;50.810;8.342;2022-07-06T12:11:16;1.40;;;0.80;;
5805;SDS011;2929;50.810;8.342;2022-07-06T12:13:47;1.70;;;1.03;;
5805;SDS011;2929;50.810;8.342;2022-07-06T12:16:15;0.90;;;0.90;;
5805;SDS011;2929;50.810;8.342;2022-07-06T12:18:46;1.90;;;1.00;;
5805;SDS011;2929;50.810;8.342;2022-07-06T12:21:14;2.20;;;1.00;;
5805;SDS011;2929;50.810;8.342;2022-07-06T12:23:44;8.13;;;0.90;;
5805;SDS011;2929;50.810;8.342;2022-07-06T12:26:12;1.13;;;1.03;;
5805;SDS011;2929;50.810;8.342;2022-07-06T12:28:41;2.70;;;0.90;;
5805;SDS011;2929;50.810;8.342;2022-07-06T12:31:09;3.37;;;0.93;;
5805;SDS011;2929;50.810;8.342;2022-07-06T12:33:36;3.60;;;1.00;;
5805;SDS011;2929;50.810;8.342;2022-07-06T12:36:12;1.43;;;0.90;;
5805;SDS011;2929;50.810;8.342;2022-07-06T12:38:45;2.87;;;1.30;;
5805;SDS011;2929;50.810;8.342;2022-07-06T12:41:25;1.93;;;1.17;;
5805;SDS011;2929;50.810;8.342;2022-07-06T12:44:05;2.87;;;1.00;;
5805;SDS011;2929;50.810;8.342;2022-07-06T12:46:35;2.70;;;1.10;;
5805;SDS011;2929;50.810;8.342;2022-07-06T12:49:14;11.23;;;1.53;;
5805;SDS011;2929;50.810;8.342;2022-07-06T12:51:57;1.30;;;1.20;;
5805;SDS011;2929;50.810;8.342;2022-07-06T12:54:27;6.67;;;1.27;;
5805;SDS011;2929;50.810;8.342;2022-07-06T12:57:00;7.43;;;1.37;;
5805;SDS011;2929;50.810;8.342;2022-07-06T12:59:33;3.33;;;0.80;;
5805;SDS011;2929;50.810;8.342;2022-07-06T13:02:02;2.67;;;1.30;;
5805;SDS011;2929;50.810;8.342;2022-07-06T13:04:31;2.17;;;1.33;;
5805;SDS011;2929;50.810;8.342;2022-07-06T13:07:00;5.83;;;1.20;;
5805;SDS011;2929;50.810;8.342;2022-07-06T13:09:27;5.73;;;1.20;;
5805;SDS011;2929;50.810;8.342;2022-07-06T13:11:55;4.40;;;1.00;;
5805;SDS011;2929;50.810;8.342;2022-07-06T13:14:23;2.43;;;1.23;;
5805;SDS011;2929;50.810;8.342;2022-07-06T13:16:50;4.97;;;1.33;;
5805;SDS011;2929;50.810;8.342;2022-07-06T13:19:17;3.03;;;0.90;;
5805;SDS011;2929;50.810;8.342;2022-07-06T13:21:44;2.00;;;1.30;;
5805;SDS011;2929;50.810;8.342;2022-07-06T13:24:12;1.23;;;0.90;;
5805;SDS011;2929;50.810;8.342;2022-07-06T13:26:39;1.97;;;0.90;;
5805;SDS011;2929;50.810;8.342;2022-07-06T13:29:06;4.90;;;1.20;;
5805;SDS011;2929;50.810;8.342;2022-07-06T13:31:36;0.87;;;0.87;;
5805;SDS011;2929;50.810;8.342;2022-07-06T13:34:04;3.07;;;1.20;;
5805;SDS011;2929;50.810;8.342;2022-07-06T13:36:31;2.00;;;1.10;;
5805;SDS011;2929;50.810;8.342;2022-07-06T13:38:59;4.23;;;1.60;;
5805;SDS011;2929;50.810;8.342;2022-07-06T13:41:27;1.73;;;1.00;;
5805;SDS011;2929;50.810;8.342;2022-07-06T13:43:55;5.50;;;1.07;;
5805;SDS011;2929;50.810;8.342;2022-07-06T13:46:22;2.80;;;1.00;;
5805;SDS011;2929;50.810;8.342;2022-07-06T13:48:49;1.87;;;1.10;;
5805;SDS011;2929;50.810;8.342;2022-07-06T13:51:16;2.00;;;0.93;;
5805;SDS011;2929;50.810;8.342;2022-07-06T13:53:43;1.10;;;0.97;;
5805;SDS011;2929;50.810;8.342;2022-07-06T13:56:10;1.83;;;1.10;;
5805;SDS011;2929;50.810;8.342;2022-07-06T13:58:39;1.57;;;0.93;;
5805;SDS011;2929;50.810;8.342;2022-07-06T14:01:06;5.83;;;1.47;;
5805;SDS011;2929;50.810;8.342;2022-07-06T14:03:33;5.00;;;1.10;;
5805;SDS011;2929;50.810;8.342;2022-07-06T14:06:02;1.63;;;1.20;;
5805;SDS011;2929;50.810;8.342;2022-07-06T14:08:31;1.87;;;1.30;;
5805;SDS011;2929;50.810;8.342;2022-07-06T14:10:58;2.03;;;1.10;;
5805;SDS011;2929;50.810;8.342;2022-07-06T14:13:26;2.67;;;1.13;;
5805;SDS011;2929;50.810;8.342;2022-07-06T14:15:54;1.33;;;1.10;;
5805;SDS011;2929;50.810;8.342;2022-07-06T14:18:21;1.73;;;1.17;;
5805;SDS011;2929;50.810;8.342;2022-07-06T14:20:49;4.73;;;1.40;;
5805;SDS011;2929;50.810;8.342;2022-07-06T14:23:17;5.50;;;1.10;;
5805;SDS011;2929;50.810;8.342;2022-07-06T14:25:44;2.23;;;1.37;;
5805;SDS011;2929;50.810;8.342;2022-07-06T14:28:11;2.30;;;1.20;;
5805;SDS011;2929;50.810;8.342;2022-07-06T14:30:39;3.60;;;1.67;;
5805;SDS011;2929;50.810;8.342;2022-07-06T14:33:08;2.83;;;1.33;;
5805;SDS011;2929;50.810;8.342;2022-07-06T14:35:36;4.53;;;1.43;;
5805;SDS011;2929;50.810;8.342;2022-07-06T14:38:05;2.60;;;1.30;;
5805;SDS011;2929;50.810;8.342;2022-07-06T14:40:32;2.50;;;1.10;;
5805;SDS011;2929;50.810;8.342;2022-07-06T14:43:00;1.93;;;1.10;;
5805;SDS011;2929;50.810;8.342;2022-07-06T14:45:28;3.37;;;1.40;;
5805;SDS011;2929;50.810;8.342;2022-07-06T14:47:55;5.30;;;1.33;;
5805;SDS011;2929;50.810;8.342;2022-07-06T14:50:25;2.30;;;1.60;;
5805;SDS011;2929;50.810;8.342;2022-07-06T14:52:52;2.00;;;1.10;;
5805;SDS011;2929;50.810;8.342;2022-07-06T14:55:20;2.00;;;1.40;;
5805;SDS011;2929;50.810;8.342;2022-07-06T14:57:47;3.80;;;1.40;;
5805;SDS011;2929;50.810;8.342;2022-07-06T15:00:16;2.60;;;1.50;;
5805;SDS011;2929;50.810;8.342;2022-07-06T15:02:48;3.53;;;1.33;;
5805;SDS011;2929;50.810;8.342;2022-07-06T15:05:19;4.10;;;1.60;;
5805;SDS011;2929;50.810;8.342;2022-07-06T15:07:47;4.43;;;1.40;;
5805;SDS011;2929;50.810;8.342;2022-07-06T15:10:14;3.53;;;1.20;;
5805;SDS011;2929;50.810;8.342;2022-07-06T15:12:41;2.93;;;1.30;;
5805;SDS011;2929;50.810;8.342;2022-07-06T15:15:08;2.47;;;1.30;;
5805;SDS011;2929;50.810;8.342;2022-07-06T15:17:36;1.40;;;1.30;;
5805;SDS011;2929;50.810;8.342;2022-07-06T15:20:03;1.47;;;1.20;;
5805;SDS011;2929;50.810;8.342;2022-07-06T15:22:31;2.63;;;1.20;;
5805;SDS011;2929;50.810;8.342;2022-07-06T15:25:02;2.37;;;1.27;;
5805;SDS011;2929;50.810;8.342;2022-07-06T15:27:30;3.27;;;1.10;;
5805;SDS011;2929;50.810;8.342;2022-07-06T15:29:57;1.70;;;1.00;;